Time;durP1;ratioP1;P1;durP2;ratioP2;P2;SDS_P1;SDS_P2;PMS_P1;PMS_P2;Temp;Humidity;BMP_temperature;BMP_pressure;BME280_temperature;BME280_humidity;BME280_pressure;Samples;Min_cycle;Max_cycle;Signal;HPM_P1;HPM_P2
2021/12/05 00:24:20;;;;;;;14.15;2.00;;;8.30;58.60;;;;;;6123377;23;20017;-56
2021/12/05 00:26:55;;;;;;;10.75;2.30;;;8.30;58.50;;;;;;6112113;23;20014;-54
2021/12/05 00:29:36;;;;;;;9.30;1.90;;;8.30;58.50;;;;;;6116302;23;20304;-51
2021/12/05 00:33:17;;;;;;;7.25;1.73;;;8.30;58.50;;;;;;6126169;23;19998;-55
2021/12/05 00:40:58;;;;;;;9.15;2.00;;;8.30;58.60;;;;;;6125529;23;20010;-51
2021/12/05 00:48:57;;;;;;;10.20;1.92;;;8.40;58.50;;;;;;6126212;23;20289;-52
2021/12/05 00:59:31;;;;;;;9.32;1.92;;;8.40;58.40;;;;;;6125515;23;20335;-53
2021/12/05 01:07:21;;;;;;;14.93;2.08;;;8.40;58.50;;;;;;6113445;23;20014;-54
2021/12/05 01:10:15;;;;;;;10.95;2.10;;;8.40;58.60;;;;;;6125539;23;19994;-54
2021/12/05 01:12:44;;;;;;;7.28;1.42;;;8.40;58.60;;;;;;6114713;23;20192;-51
2021/12/05 01:15:17;;;;;;;12.95;1.77;;;8.40;58.60;;;;;;6113738;23;20059;-54
2021/12/05 01:18:03;;;;;;;15.95;2.05;;;8.40;58.60;;;;;;6115050;23;20009;-52
2021/12/05 01:20:37;;;;;;;9.15;1.58;;;8.50;58.60;;;;;;6114167;23;20447;-53
2021/12/05 01:23:11;;;;;;;15.13;2.40;;;8.50;58.50;;;;;;6111962;23;20332;-52
2021/12/05 01:25:49;;;;;;;12.75;1.50;;;8.40;58.20;;;;;;6114760;23;20010;-56
2021/12/05 01:30:59;;;;;;;8.57;1.48;;;8.40;58.30;;;;;;6123567;23;20005;-53
2021/12/05 01:36:05;;;;;;;15.07;1.80;;;8.40;58.30;;;;;;6113905;23;20334;-51
2021/12/05 01:39:28;;;;;;;8.40;1.33;;;8.40;58.40;;;;;;6115346;23;20017;-52
2021/12/05 01:52:56;;;;;;;8.43;2.22;;;8.30;58.40;;;;;;6111737;23;20001;-52
2021/12/05 01:57:31;;;;;;;6.88;1.33;;;8.30;58.30;;;;;;6115254;23;20006;-55
2021/12/05 02:07:36;;;;;;;15.02;2.20;;;8.20;58.30;;;;;;6122705;23;20002;-54
2021/12/05 02:42:49;;;;;;;12.50;2.22;;;8.00;58.60;;;;;;6122893;23;20014;-55
2021/12/05 02:45:15;;;;;;;13.38;2.35;;;7.90;58.50;;;;;;6123460;23;20273;-50
2021/12/05 02:47:49;;;;;;;12.77;2.13;;;7.90;58.30;;;;;;6115371;23;20017;-51
2021/12/05 02:50:17;;;;;;;11.70;1.75;;;7.90;58.30;;;;;;6116021;23;20010;-53
2021/12/05 02:52:44;;;;;;;5.75;1.75;;;7.90;58.30;;;;;;6112322;23;20006;-52
2021/12/05 02:55:26;;;;;;;21.42;1.92;;;7.80;58.30;;;;;;6115576;23;20013;-54
2021/12/05 02:57:58;;;;;;;10.30;1.98;;;7.80;58.30;;;;;;6126913;23;20006;-51
2021/12/05 03:00:39;;;;;;;12.15;2.40;;;7.80;58.40;;;;;;6126325;23;20002;-52
2021/12/05 03:03:19;;;;;;;8.88;1.70;;;7.80;58.40;;;;;;6125510;23;20005;-56
2021/12/05 03:05:50;;;;;;;6.72;1.48;;;7.80;58.50;;;;;;6125841;23;20415;-54
2021/12/05 03:08:17;;;;;;;13.48;1.63;;;7.80;58.50;;;;;;6116569;23;20453;-53
2021/12/05 03:10:44;;;;;;;13.43;2.47;;;7.70;58.40;;;;;;6117568;23;20001;-54
2021/12/05 03:13:10;;;;;;;11.18;1.45;;;7.80;58.40;;;;;;6116061;23;20002;-54
2021/12/05 03:15:37;;;;;;;9.85;2.22;;;7.70;58.30;;;;;;6116182;23;20059;-51
2021/12/05 03:18:03;;;;;;;15.63;2.33;;;7.70;58.30;;;;;;6117318;23;20006;-56
2021/12/05 03:20:30;;;;;;;12.80;1.55;;;7.70;58.40;;;;;;6115774;23;20009;-50
2021/12/05 03:22:56;;;;;;;10.65;1.80;;;7.70;58.90;;;;;;6115117;23;20437;-53
2021/12/05 03:25:23;;;;;;;12.20;1.58;;;7.70;58.50;;;;;;6115996;23;20006;-55
2021/12/05 03:27:50;;;;;;;11.13;1.52;;;7.70;58.50;;;;;;6117167;23;20009;-55
2021/12/05 03:30:21;;;;;;;12.70;1.73;;;7.60;58.30;;;;;;6115628;23;20339;-53
2021/12/05 03:32:49;;;;;;;11.23;1.98;;;7.60;58.30;;;;;;6115983;23;20002;-53
2021/12/05 03:35:18;;;;;;;14.18;2.30;;;7.60;58.40;;;;;;6115254;23;20009;-53
2021/12/05 03:37:46;;;;;;;8.68;2.10;;;7.60;58.40;;;;;;6115748;23;20005;-53
2021/12/05 03:40:12;;;;;;;11.23;1.58;;;7.50;58.40;;;;;;6116268;23;20450;-53
2021/12/05 03:42:38;;;;;;;12.93;2.15;;;7.50;58.40;;;;;;6117002;23;20009;-53
2021/12/05 03:45:10;;;;;;;8.95;1.50;;;7.50;58.50;;;;;;6114926;23;20006;-52
2021/12/05 03:47:37;;;;;;;15.45;2.20;;;7.40;58.50;;;;;;6121790;23;20029;-55
2021/12/05 03:50:09;;;;;;;13.25;1.95;;;7.40;58.50;;;;;;6114407;23;20005;-55
2021/12/05 03:52:39;;;;;;;7.38;2.05;;;7.40;58.60;;;;;;6115451;23;20010;-53
2021/12/05 03:55:08;;;;;;;15.68;2.25;;;7.40;58.50;;;;;;6116125;23;20002;-54
2021/12/05 03:57:35;;;;;;;9.15;1.63;;;7.30;58.50;;;;;;6115448;23;20017;-52
2021/12/05 04:00:05;;;;;;;11.55;1.55;;;7.30;58.50;;;;;;6115298;23;20013;-55
2021/12/05 04:02:31;;;;;;;10.90;2.10;;;7.30;58.60;;;;;;6116810;23;20002;-54
2021/12/05 04:04:57;;;;;;;5.15;1.60;;;7.20;58.60;;;;;;6113929;23;20059;-56
2021/12/05 04:07:24;;;;;;;13.38;2.00;;;7.20;58.60;;;;;;6112022;23;20018;-54
2021/12/05 04:09:50;;;;;;;9.25;1.80;;;7.20;58.70;;;;;;6115449;23;20196;-52
2021/12/05 04:12:16;;;;;;;10.55;1.77;;;7.20;58.70;;;;;;6116047;23;20006;-53
2021/12/05 04:14:45;;;;;;;7.07;1.77;;;7.10;58.50;;;;;;6115099;23;20701;-53
2021/12/05 04:17:13;;;;;;;14.20;1.58;;;7.10;58.50;;;;;;6115004;23;20470;-54
2021/12/05 04:19:40;;;;;;;10.57;1.70;;;7.10;58.60;;;;;;6116336;23;20002;-51
2021/12/05 04:22:08;;;;;;;13.13;2.22;;;7.10;58.60;;;;;;6110803;23;20002;-56
2021/12/05 04:24:35;;;;;;;13.27;1.80;;;7.10;58.40;;;;;;6113217;23;19998;-53
2021/12/05 04:27:02;;;;;;;8.60;1.48;;;7.00;58.80;;;;;;6115423;23;20002;-56
2021/12/05 04:29:28;;;;;;;9.02;1.63;;;7.00;58.30;;;;;;6114310;23;20269;-53
2021/12/05 04:31:55;;;;;;;10.50;1.70;;;7.00;58.40;;;;;;6113732;23;20012;-54
2021/12/05 04:34:21;;;;;;;6.88;1.65;;;7.00;58.50;;;;;;6113520;23;20002;-56
2021/12/05 04:36:47;;;;;;;8.73;1.65;;;7.00;58.50;;;;;;6111676;23;20006;-53
2021/12/05 04:39:14;;;;;;;17.98;2.20;;;6.90;58.40;;;;;;6113633;23;20327;-56
2021/12/05 04:41:42;;;;;;;9.25;2.17;;;6.90;58.40;;;;;;6113616;23;19998;-53
2021/12/05 04:44:08;;;;;;;7.80;2.22;;;6.90;58.30;;;;;;6114626;23;19998;-56
2021/12/05 04:46:35;;;;;;;11.18;2.08;;;6.90;58.40;;;;;;6114727;23;20006;-53
2021/12/05 04:49:02;;;;;;;6.03;1.20;;;6.80;58.40;;;;;;6116490;23;20364;-55
2021/12/05 04:51:32;;;;;;;7.03;1.15;;;6.80;58.40;;;;;;6114523;23;20188;-52
2021/12/05 04:54:00;;;;;;;8.55;1.40;;;6.80;58.40;;;;;;6112628;23;20006;-54
2021/12/05 04:56:27;;;;;;;8.90;1.15;;;6.80;58.50;;;;;;6116812;23;20006;-51
2021/12/05 04:58:55;;;;;;;9.68;1.55;;;6.80;58.40;;;;;;6115675;23;20017;-52
2021/12/05 05:01:22;;;;;;;5.30;1.35;;;6.80;58.40;;;;;;6114833;23;20339;-52
2021/12/05 05:03:49;;;;;;;13.27;2.00;;;6.70;58.30;;;;;;6115781;23;20017;-54
2021/12/05 05:06:17;;;;;;;10.13;1.33;;;6.70;58.40;;;;;;6113928;23;20013;-52
2021/12/05 05:08:47;;;;;;;7.40;1.30;;;6.70;58.40;;;;;;6112189;23;20014;-56
2021/12/05 05:11:17;;;;;;;6.80;1.40;;;6.70;58.50;;;;;;6115435;23;20002;-54
2021/12/05 05:13:44;;;;;;;7.07;1.30;;;6.60;58.40;;;;;;6110845;23;20330;-52
2021/12/05 05:16:14;;;;;;;8.18;1.83;;;6.60;58.40;;;;;;6113589;23;20014;-54
2021/12/05 05:18:51;;;;;;;6.10;1.45;;;6.60;58.40;;;;;;6107713;23;20026;-54
2021/12/05 05:26:57;;;;;;;7.47;2.08;;;6.50;58.50;;;;;;6125347;23;20514;-54
2021/12/05 05:29:47;;;;;;;4.97;1.52;;;6.50;58.50;;;;;;6114176;23;20006;-56
2021/12/05 05:45:57;;;;;;;8.43;1.38;;;6.40;58.60;;;;;;6114889;23;20015;-53
2021/12/05 05:48:36;;;;;;;10.23;1.50;;;6.40;58.60;;;;;;6114572;23;20009;-53
2021/12/05 05:51:05;;;;;;;11.95;2.17;;;6.30;58.70;;;;;;6123487;23;20006;-53
2021/12/05 05:53:32;;;;;;;10.68;1.90;;;6.30;58.70;;;;;;6112513;23;20017;-55
2021/12/05 05:55:58;;;;;;;5.00;1.25;;;6.30;58.80;;;;;;6115161;23;20424;-53
2021/12/05 05:58:36;;;;;;;10.13;1.52;;;6.20;58.80;;;;;;6114230;23;20002;-54
2021/12/05 06:01:06;;;;;;;8.95;1.65;;;6.20;59.40;;;;;;6123858;23;20006;-54
2021/12/05 06:03:33;;;;;;;13.85;1.52;;;6.20;58.90;;;;;;6114047;23;20013;-53
2021/12/05 06:06:08;;;;;;;16.20;2.90;;;6.20;59.00;;;;;;6114202;23;20438;-54
2021/12/05 06:08:37;;;;;;;11.40;2.72;;;6.20;59.10;;;;;;6115283;23;20010;-53
2021/12/05 06:11:09;;;;;;;7.57;1.50;;;6.20;59.10;;;;;;6115728;23;20001;-53
2021/12/05 06:13:37;;;;;;;10.70;1.73;;;6.10;59.20;;;;;;6111637;23;20451;-54
2021/12/05 06:16:06;;;;;;;8.35;1.60;;;6.10;59.30;;;;;;6088769;23;20006;-53
2021/12/05 06:18:32;;;;;;;8.10;1.98;;;6.10;59.40;;;;;;6111208;23;20010;-54
2021/12/05 06:20:58;;;;;;;5.63;1.38;;;6.10;59.40;;;;;;6114586;23;20458;-53
2021/12/05 06:23:25;;;;;;;12.35;1.85;;;6.10;59.50;;;;;;6111154;23;20308;-53
2021/12/05 06:25:52;;;;;;;9.82;1.70;;;6.10;59.60;;;;;;6114728;23;20006;-56
2021/12/05 06:28:27;;;;;;;6.57;1.70;;;6.10;59.70;;;;;;6116503;23;20002;-51
2021/12/05 06:42:05;;;;;;;6.93;1.83;;;6.30;60.70;;;;;;6124810;23;20002;-55
2021/12/05 06:47:20;;;;;;;9.98;1.85;;;6.30;60.70;;;;;;6124708;23;20023;-52
2021/12/05 06:49:47;;;;;;;4.00;1.08;;;6.40;60.80;;;;;;6138175;23;20002;-55
2021/12/05 06:52:13;;;;;;;8.18;1.63;;;6.40;60.60;;;;;;6114874;23;20200;-54
2021/12/05 06:54:40;;;;;;;5.55;1.33;;;6.40;60.50;;;;;;6113970;23;20006;-54
2021/12/05 06:57:07;;;;;;;5.80;1.27;;;6.50;60.50;;;;;;6116024;23;20002;-52
2021/12/05 06:59:38;;;;;;;6.10;1.40;;;6.50;60.40;;;;;;6115567;23;20009;-54
2021/12/05 07:02:06;;;;;;;10.82;1.65;;;6.50;60.30;;;;;;6115486;23;20063;-54
2021/12/05 07:06:59;;;;;;;8.68;1.38;;;6.50;60.20;;;;;;6114831;23;20017;-54
2021/12/05 07:09:27;;;;;;;6.72;1.63;;;6.50;60.20;;;;;;6115150;23;20371;-54
2021/12/05 07:14:51;;;;;;;5.35;1.38;;;6.60;60.30;;;;;;6124846;23;20006;-54
2021/12/05 07:22:56;;;;;;;9.63;1.38;;;6.70;60.40;;;;;;6124125;23;20013;-56
2021/12/05 07:42:10;;;;;;;4.20;1.73;;;6.80;60.10;;;;;;6123970;23;20525;-56
2021/12/05 07:44:37;;;;;;;7.10;2.00;;;6.80;60.10;;;;;;6115869;23;20006;-56
2021/12/05 07:47:03;;;;;;;4.50;1.42;;;6.80;60.10;;;;;;6115075;23;20427;-52
2021/12/05 07:49:30;;;;;;;14.38;1.65;;;6.80;60.10;;;;;;6114537;23;19994;-56
2021/12/05 07:51:56;;;;;;;5.13;1.50;;;6.80;60.10;;;;;;6114241;23;20014;-56
2021/12/05 07:54:35;;;;;;;6.53;2.00;;;6.80;60.20;;;;;;6114110;23;20010;-51
2021/12/05 08:16:10;;;;;;;3.97;1.50;;;6.80;60.40;;;;;;6124004;23;20349;-56
2021/12/05 08:18:36;;;;;;;15.60;1.60;;;6.70;60.50;;;;;;6113690;23;20002;-52
2021/12/05 08:21:05;;;;;;;4.88;1.10;;;6.70;60.70;;;;;;6111949;23;20006;-56
2021/12/05 08:23:32;;;;;;;11.93;4.05;;;6.70;60.90;;;;;;6111722;23;20006;-56
2021/12/05 08:26:08;;;;;;;9.40;3.03;;;6.70;61.00;;;;;;6115455;23;20017;-54
2021/12/05 08:31:43;;;;;;;6.07;1.10;;;6.80;61.50;;;;;;6124772;23;20002;-53
2021/12/05 09:38:49;;;;;;;3.58;1.10;;;7.50;61.60;;;;;;6115596;23;20070;-56
2021/12/05 10:01:28;;;;;;;4.53;1.25;;;8.00;61.30;;;;;;6128246;23;20010;-55
2021/12/05 10:07:31;;;;;;;3.72;1.10;;;8.30;61.20;;;;;;6114296;23;20028;-55
2021/12/05 10:13:01;;;;;;;1.52;0.73;;;8.40;60.90;;;;;;6114842;23;20327;-51
2021/12/05 10:15:47;;;;;;;4.88;0.88;;;8.50;60.70;;;;;;6123605;23;20005;-49
2021/12/05 10:18:54;;;;;;;5.18;1.25;;;8.60;60.50;;;;;;6121891;23;20010;-51
2021/12/05 10:38:44;;;;;;;3.17;0.70;;;8.90;59.30;;;;;;6124229;23;20020;-51
2021/12/05 10:43:50;;;;;;;1.95;0.80;;;9.00;59.10;;;;;;6120293;23;20002;-52
2021/12/05 10:46:18;;;;;;;3.28;0.98;;;9.00;59.00;;;;;;6112681;23;20006;-55
2021/12/05 10:48:52;;;;;;;3.45;1.08;;;9.00;58.80;;;;;;6110529;23;20002;-51
2021/12/05 10:51:25;;;;;;;3.28;0.85;;;9.10;58.70;;;;;;6122843;23;19998;-52
2021/12/05 10:53:57;;;;;;;2.03;0.75;;;9.10;58.80;;;;;;6113089;23;20006;-52
2021/12/05 10:56:40;;;;;;;62.85;24.80;;;9.10;58.70;;;;;;6112127;23;19998;-55
2021/12/05 10:59:12;;;;;;;9.85;3.95;;;9.10;58.70;;;;;;6122068;23;20058;-55
2021/12/05 11:01:45;;;;;;;3.55;1.63;;;9.20;58.60;;;;;;6112442;23;20017;-55
2021/12/05 11:04:18;;;;;;;2.35;0.82;;;9.20;58.50;;;;;;6111017;23;20006;-53
2021/12/05 11:06:53;;;;;;;1.57;0.60;;;9.20;58.50;;;;;;6112244;23;20014;-54
2021/12/05 11:09:21;;;;;;;1.33;0.70;;;9.30;58.60;;;;;;6114691;23;20040;-51
2021/12/05 11:11:51;;;;;;;2.38;0.95;;;9.30;58.40;;;;;;6111850;23;20001;-53
2021/12/05 11:14:25;;;;;;;2.15;0.90;;;9.40;58.30;;;;;;6112539;23;20315;-49
2021/12/05 11:17:03;;;;;;;2.72;0.65;;;9.40;58.00;;;;;;6121369;23;20005;-52
2021/12/05 11:19:46;;;;;;;1.55;0.50;;;9.40;58.00;;;;;;6112788;23;20003;-56
2021/12/05 11:22:17;;;;;;;3.72;0.80;;;9.50;57.90;;;;;;6123300;23;19994;-54
2021/12/05 11:24:53;;;;;;;3.60;1.02;;;9.50;57.60;;;;;;6113641;23;20427;-53
2021/12/05 11:27:27;;;;;;;3.70;0.88;;;9.50;57.30;;;;;;6116086;23;20002;-53
2021/12/05 11:29:59;;;;;;;2.05;1.00;;;9.50;57.30;;;;;;6125693;23;19998;-51
2021/12/05 11:32:37;;;;;;;3.17;0.70;;;9.60;57.40;;;;;;6115673;23;20438;-53
2021/12/05 11:35:32;;;;;;;2.25;0.65;;;9.60;57.30;;;;;;6124210;23;20418;-53
2021/12/05 11:38:01;;;;;;;0.98;0.70;;;9.60;57.30;;;;;;6114518;23;20013;-54
2021/12/05 11:40:44;;;;;;;3.50;1.02;;;9.70;57.30;;;;;;6116007;23;19998;-51
2021/12/05 11:43:30;;;;;;;2.65;0.80;;;9.70;57.20;;;;;;6110446;23;20004;-56
2021/12/05 11:46:06;;;;;;;3.70;0.95;;;9.80;57.00;;;;;;6113538;23;20006;-53
2021/12/05 11:48:38;;;;;;;2.70;1.13;;;9.80;56.90;;;;;;6110847;23;20009;-55
2021/12/05 11:51:28;;;;;;;2.78;0.85;;;9.80;56.80;;;;;;6115077;23;20029;-55
2021/12/05 11:54:09;;;;;;;5.03;0.65;;;9.90;56.50;;;;;;6123538;23;19994;-52
2021/12/05 11:56:35;;;;;;;3.45;0.60;;;9.90;56.20;;;;;;6114844;23;20014;-53
2021/12/05 11:59:12;;;;;;;4.18;0.77;;;10.00;56.40;;;;;;6115320;23;20021;-53
2021/12/05 12:01:42;;;;;;;1.33;0.60;;;10.00;55.90;;;;;;6124584;23;20006;-56
2021/12/05 12:04:10;;;;;;;3.90;0.80;;;10.00;55.80;;;;;;6114806;23;20006;-54
2021/12/05 12:06:37;;;;;;;2.17;0.70;;;10.10;55.80;;;;;;6113584;23;20428;-55
2021/12/05 12:09:04;;;;;;;1.50;0.77;;;10.10;55.80;;;;;;6122534;23;20021;-55
2021/12/05 12:11:31;;;;;;;2.50;0.60;;;10.10;55.70;;;;;;6115813;23;20305;-54
2021/12/05 12:13:57;;;;;;;1.58;0.60;;;10.10;55.30;;;;;;6114403;23;20025;-53
2021/12/05 12:16:24;;;;;;;7.30;2.17;;;10.10;55.30;;;;;;6112234;23;20010;-52
2021/12/05 12:18:51;;;;;;;6.75;2.63;;;10.10;55.40;;;;;;6115876;23;20005;-53
2021/12/05 12:21:21;;;;;;;3.80;1.50;;;10.20;55.40;;;;;;6115010;23;20352;-53
2021/12/05 12:23:51;;;;;;;4.20;1.17;;;10.20;55.30;;;;;;6116131;23;20308;-53
2021/12/05 12:26:18;;;;;;;5.85;1.02;;;10.20;55.30;;;;;;6114144;23;20006;-53
2021/12/05 12:28:45;;;;;;;1.65;0.60;;;10.20;55.10;;;;;;6115963;23;20006;-53
2021/12/05 12:31:21;;;;;;;1.17;0.65;;;10.20;55.10;;;;;;6114027;23;20013;-55
2021/12/05 12:33:53;;;;;;;2.55;0.82;;;10.20;55.00;;;;;;6115910;23;20017;-55
2021/12/05 12:36:36;;;;;;;1.33;0.80;;;10.30;55.00;;;;;;6114154;23;20006;-55
2021/12/05 12:39:27;;;;;;;2.92;0.70;;;10.20;54.80;;;;;;6115624;23;19998;-54
2021/12/05 12:42:05;;;;;;;1.95;0.60;;;10.30;54.70;;;;;;6122658;23;20326;-55
2021/12/05 12:44:32;;;;;;;5.57;0.40;;;10.30;54.80;;;;;;6112851;23;20017;-54
2021/12/05 12:47:02;;;;;;;1.63;0.82;;;10.30;54.70;;;;;;6115919;23;20051;-54
2021/12/05 12:49:38;;;;;;;2.53;0.80;;;10.30;54.50;;;;;;6116301;23;20002;-54
2021/12/05 12:52:08;;;;;;;1.42;0.70;;;10.30;54.70;;;;;;6111634;23;20017;-54
2021/12/05 12:54:48;;;;;;;3.60;0.80;;;10.20;54.60;;;;;;6115720;23;20622;-52
2021/12/05 12:57:23;;;;;;;1.75;0.70;;;10.20;54.50;;;;;;6125951;23;20383;-50
2021/12/05 13:00:26;;;;;;;1.30;0.65;;;10.20;54.40;;;;;;6123852;23;19998;-54
2021/12/05 13:03:12;;;;;;;4.03;0.90;;;10.20;54.40;;;;;;6111783;23;19998;-56
2021/12/05 13:11:17;;;;;;;2.28;0.47;;;10.30;53.90;;;;;;6124356;23;20009;-56
2021/12/05 13:13:46;;;;;;;1.02;0.40;;;10.30;53.50;;;;;;6114452;23;20435;-54
2021/12/05 13:16:16;;;;;;;3.38;0.80;;;10.30;53.50;;;;;;6115110;23;20017;-54
2021/12/05 13:18:47;;;;;;;1.60;0.55;;;10.20;53.90;;;;;;6114934;23;20025;-53
2021/12/05 13:21:13;;;;;;;1.48;0.50;;;10.20;53.30;;;;;;6113778;23;20006;-54
2021/12/05 13:23:50;;;;;;;2.88;0.60;;;10.20;53.50;;;;;;6112434;23;20017;-52
2021/12/05 13:26:24;;;;;;;2.40;0.50;;;10.20;53.50;;;;;;6124552;23;20327;-54
2021/12/05 13:29:14;;;;;;;3.03;0.70;;;10.20;53.80;;;;;;6115131;23;20009;-55
2021/12/05 13:32:02;;;;;;;2.83;0.82;;;10.20;53.40;;;;;;6114759;23;20017;-54
2021/12/05 13:34:35;;;;;;;2.03;0.75;;;10.20;53.50;;;;;;6123076;23;20009;-53
2021/12/05 13:37:08;;;;;;;1.95;0.60;;;10.20;53.30;;;;;;6113246;23;20002;-56
2021/12/05 13:39:49;;;;;;;5.25;1.00;;;10.20;53.40;;;;;;6125235;23;20005;-54
2021/12/05 13:42:17;;;;;;;1.58;0.70;;;10.20;53.40;;;;;;6124437;23;20001;-52
2021/12/05 13:45:17;;;;;;;1.80;0.70;;;10.20;53.50;;;;;;6114121;23;20037;-53
2021/12/05 13:47:52;;;;;;;2.33;0.50;;;10.20;53.30;;;;;;6124764;23;20291;-56
2021/12/05 13:50:18;;;;;;;2.92;0.60;;;10.20;53.50;;;;;;6115079;23;20005;-56
2021/12/05 13:52:58;;;;;;;1.80;0.60;;;10.20;53.60;;;;;;6112187;23;20009;-54
2021/12/05 13:55:34;;;;;;;3.63;0.60;;;10.10;53.40;;;;;;6114467;23;20320;-55
2021/12/05 13:58:41;;;;;;;3.03;0.80;;;10.10;53.40;;;;;;6115498;23;20013;-54
2021/12/05 14:01:14;;;;;;;3.85;0.65;;;10.10;53.50;;;;;;6113525;23;20002;-55
2021/12/05 14:03:55;;;;;;;1.05;0.50;;;10.20;53.70;;;;;;6124008;23;20324;-56
2021/12/05 14:06:41;;;;;;;3.35;0.60;;;10.10;53.70;;;;;;6121166;23;20005;-53
2021/12/05 14:09:21;;;;;;;2.53;1.00;;;10.10;54.10;;;;;;6124978;23;20012;-56
2021/12/05 14:11:54;;;;;;;2.03;0.80;;;10.10;53.60;;;;;;6114257;23;20009;-54
2021/12/05 14:14:31;;;;;;;2.80;0.77;;;10.10;53.70;;;;;;6114139;23;20001;-54
2021/12/05 14:16:59;;;;;;;5.57;0.90;;;10.10;53.90;;;;;;6124479;23;20307;-53
2021/12/05 14:19:30;;;;;;;2.97;0.75;;;10.00;53.90;;;;;;6115205;23;20024;-54
2021/12/05 14:21:59;;;;;;;3.10;0.82;;;10.00;53.90;;;;;;6111806;23;20396;-56
2021/12/05 14:24:28;;;;;;;2.90;0.75;;;10.00;54.00;;;;;;6114388;23;20184;-53
2021/12/05 14:26:58;;;;;;;2.35;0.70;;;10.00;54.00;;;;;;6114117;23;20006;-54
2021/12/05 14:29:26;;;;;;;1.95;0.68;;;10.00;54.00;;;;;;6113856;23;20014;-54
2021/12/05 14:31:58;;;;;;;2.05;0.65;;;10.00;53.90;;;;;;6111614;23;20017;-54
2021/12/05 14:34:25;;;;;;;3.78;0.60;;;10.00;53.90;;;;;;6111529;23;20005;-55
2021/12/05 14:37:05;;;;;;;3.25;0.68;;;9.90;53.90;;;;;;6111150;23;20002;-51
2021/12/05 14:39:37;;;;;;;1.90;0.70;;;9.90;54.40;;;;;;6123873;23;20002;-51
2021/12/05 14:42:10;;;;;;;3.00;0.90;;;9.90;54.00;;;;;;6124157;23;20331;-53
2021/12/05 14:44:38;;;;;;;6.82;0.88;;;9.90;53.90;;;;;;6123125;23;20002;-56
2021/12/05 14:47:18;;;;;;;4.38;1.20;;;9.90;54.00;;;;;;6114481;23;20002;-54
2021/12/05 14:49:48;;;;;;;1.45;0.60;;;9.80;53.90;;;;;;6126503;23;20016;-54
2021/12/05 14:52:24;;;;;;;2.35;0.70;;;9.80;54.00;;;;;;6113181;23;20212;-54
2021/12/05 14:54:51;;;;;;;3.15;0.80;;;9.80;54.00;;;;;;6115589;23;20021;-53
2021/12/05 14:57:21;;;;;;;2.97;0.80;;;9.80;54.10;;;;;;6116994;23;20331;-53
2021/12/05 14:59:51;;;;;;;3.10;0.93;;;9.80;54.10;;;;;;6116180;23;20009;-50
2021/12/05 15:02:20;;;;;;;3.03;0.90;;;9.70;54.10;;;;;;6113270;23;20013;-52
2021/12/05 15:04:49;;;;;;;4.68;0.93;;;9.70;54.10;;;;;;6114205;23;20002;-54
2021/12/05 15:07:21;;;;;;;2.83;0.60;;;9.70;54.20;;;;;;6112705;23;20013;-52
2021/12/05 15:09:51;;;;;;;2.67;0.68;;;9.70;54.20;;;;;;6114760;23;20014;-54
2021/12/05 15:12:22;;;;;;;5.50;0.90;;;9.60;54.20;;;;;;6115819;23;19998;-56
2021/12/05 15:14:52;;;;;;;1.40;0.60;;;9.70;54.30;;;;;;6114176;23;20466;-53
2021/12/05 15:17:24;;;;;;;1.88;0.77;;;9.60;54.20;;;;;;6113659;23;20002;-53
2021/12/05 15:19:53;;;;;;;1.05;0.52;;;9.60;54.30;;;;;;6124860;23;20006;-52
2021/12/05 15:22:21;;;;;;;2.45;0.90;;;9.60;54.30;;;;;;6114182;23;20324;-53
2021/12/05 15:25:08;;;;;;;3.60;0.95;;;9.50;54.40;;;;;;6113855;23;20494;-53
2021/12/05 15:27:37;;;;;;;1.38;0.68;;;9.60;54.40;;;;;;6123023;23;20384;-55
2021/12/05 15:30:06;;;;;;;1.70;0.80;;;9.50;54.50;;;;;;6115693;23;20017;-53
2021/12/05 15:32:33;;;;;;;2.30;1.02;;;9.50;54.50;;;;;;6114795;23;20002;-52
2021/12/05 15:35:20;;;;;;;1.40;0.50;;;9.50;54.50;;;;;;6115792;23;20009;-53
2021/12/05 15:37:58;;;;;;;2.13;1.10;;;9.50;54.90;;;;;;6113754;23;20006;-54
2021/12/05 15:40:27;;;;;;;2.95;0.90;;;9.40;54.50;;;;;;6125806;23;20005;-54
2021/12/05 15:43:08;;;;;;;2.97;1.00;;;9.40;54.60;;;;;;6114948;23;19998;-55
2021/12/05 15:45:36;;;;;;;3.90;1.23;;;9.40;54.50;;;;;;6125289;23;20002;-53
2021/12/05 15:48:03;;;;;;;4.28;1.67;;;9.40;54.60;;;;;;6114691;23;20002;-53
2021/12/05 15:50:32;;;;;;;6.43;1.40;;;9.40;54.60;;;;;;6114485;23;20458;-53
2021/12/05 15:53:07;;;;;;;5.05;1.70;;;9.40;54.60;;;;;;6111635;23;20106;-53
2021/12/05 15:55:42;;;;;;;5.75;1.40;;;9.40;54.60;;;;;;6113796;23;20316;-53
2021/12/05 15:58:12;;;;;;;3.47;2.40;;;9.30;54.60;;;;;;6113426;23;20010;-56
2021/12/05 16:00:46;;;;;;;3.78;1.38;;;9.40;54.70;;;;;;6112521;23;20006;-54
2021/12/05 16:03:12;;;;;;;;;;;9.30;54.70;;;;;;6121474;23;20064;-55
2021/12/05 16:05:40;;;;;;;10.32;1.45;;;9.40;54.80;;;;;;6112649;23;19904;-56
2021/12/05 16:08:08;;;;;;;1.98;1.02;;;9.40;54.70;;;;;;6111307;23;20021;-55
2021/12/05 16:10:46;;;;;;;2.33;1.10;;;9.30;54.70;;;;;;6115868;23;20181;-52
2021/12/05 16:13:16;;;;;;;2.45;1.02;;;9.30;54.70;;;;;;6124503;23;20002;-54
2021/12/05 16:15:46;;;;;;;2.80;1.00;;;9.30;54.80;;;;;;6114625;23;20005;-51
2021/12/05 16:18:13;;;;;;;5.07;1.30;;;9.30;54.90;;;;;;6112947;23;20045;-54
2021/12/05 16:20:45;;;;;;;3.47;1.15;;;9.30;54.90;;;;;;6112923;23;20446;-54
2021/12/05 16:23:24;;;;;;;3.22;1.40;;;9.20;54.90;;;;;;6112848;23;20013;-52
2021/12/05 16:26:04;;;;;;;3.55;1.70;;;9.20;54.90;;;;;;6117192;23;20010;-51
2021/12/05 16:28:35;;;;;;;3.42;1.35;;;9.30;54.90;;;;;;6115041;23;20014;-56
2021/12/05 16:31:07;;;;;;;5.53;1.92;;;9.20;54.90;;;;;;6125392;23;20415;-52
2021/12/05 16:33:34;;;;;;;3.47;1.67;;;9.20;54.90;;;;;;6123940;23;19998;-52
2021/12/05 16:36:02;;;;;;;3.65;1.30;;;9.20;54.90;;;;;;6112100;23;19998;-53
2021/12/05 16:38:30;;;;;;;2.92;1.60;;;9.20;54.90;;;;;;6114006;23;20006;-55
2021/12/05 16:41:09;;;;;;;5.00;1.67;;;9.20;54.90;;;;;;6113359;23;20013;-55
2021/12/05 16:43:44;;;;;;;8.20;1.60;;;9.20;54.90;;;;;;6123281;23;20009;-54
2021/12/05 16:46:16;;;;;;;4.68;1.60;;;9.20;55.00;;;;;;6123712;23;20010;-54
2021/12/05 16:48:44;;;;;;;5.47;2.00;;;9.20;55.00;;;;;;6110046;23;20017;-51
2021/12/05 16:51:14;;;;;;;5.10;1.80;;;9.20;55.00;;;;;;6109917;23;20427;-53
2021/12/05 16:53:45;;;;;;;5.20;2.03;;;9.20;55.00;;;;;;6115203;23;20438;-55
2021/12/05 16:56:14;;;;;;;4.22;2.55;;;9.10;55.00;;;;;;6114203;23;20009;-54
2021/12/05 16:58:44;;;;;;;4.65;3.13;;;9.10;55.00;;;;;;6114521;23;19998;-54
2021/12/05 17:01:19;;;;;;;16.08;9.50;;;9.10;55.10;;;;;;6112077;23;20006;-53
2021/12/05 17:03:47;;;;;;;11.07;3.50;;;9.10;55.00;;;;;;6114212;23;20025;-55
2021/12/05 17:06:15;;;;;;;10.55;5.10;;;9.10;55.10;;;;;;6113667;23;19994;-56
2021/12/05 17:08:45;;;;;;;5.07;2.83;;;9.10;55.10;;;;;;6114967;23;20022;-53
2021/12/05 17:11:17;;;;;;;10.52;6.00;;;9.10;55.10;;;;;;6113206;23;20029;-53
2021/12/05 17:13:51;;;;;;;4.68;2.80;;;9.10;55.10;;;;;;6120106;23;19994;-54
2021/12/05 17:16:23;;;;;;;;;;;9.10;55.20;;;;;;6112603;23;20017;-54
2021/12/05 17:19:23;;;;;;;6.63;2.83;;;9.10;55.20;;;;;;6115103;23;19901;-51
2021/12/05 17:21:50;;;;;;;73.25;34.25;;;9.10;55.20;;;;;;6100664;23;20009;-52
2021/12/05 17:24:21;;;;;;;30.08;15.02;;;9.10;55.20;;;;;;6113761;23;20001;-54
2021/12/05 17:26:54;;;;;;;9.63;5.20;;;9.10;55.30;;;;;;6123996;23;20001;-53
2021/12/05 17:29:23;;;;;;;7.32;2.90;;;9.00;55.40;;;;;;6124321;23;20017;-53
2021/12/05 17:31:58;;;;;;;8.15;2.63;;;9.00;55.40;;;;;;6111842;23;20027;-52
2021/12/05 17:34:28;;;;;;;31.45;13.95;;;9.00;55.30;;;;;;6114527;23;19997;-53
2021/12/05 17:37:01;;;;;;;11.13;4.72;;;9.00;55.40;;;;;;6114306;23;20403;-54
2021/12/05 17:39:31;;;;;;;6.32;3.72;;;9.00;55.30;;;;;;6114986;23;20006;-53
2021/12/05 17:42:13;;;;;;;5.28;2.50;;;9.00;55.40;;;;;;6113598;23;20347;-52
2021/12/05 17:44:41;;;;;;;3.67;1.83;;;9.00;55.40;;;;;;6110237;23;20010;-55
2021/12/05 17:47:10;;;;;;;3.33;1.58;;;9.00;55.50;;;;;;6113976;23;20013;-51
2021/12/05 17:49:39;;;;;;;3.80;1.80;;;9.00;55.50;;;;;;6115780;23;20500;-54
2021/12/05 17:52:07;;;;;;;3.85;1.88;;;9.00;55.60;;;;;;6112636;23;20017;-52
2021/12/05 17:54:40;;;;;;;4.57;1.80;;;8.90;55.60;;;;;;6113047;23;19998;-54
2021/12/05 17:57:13;;;;;;;4.35;1.92;;;8.90;55.60;;;;;;6115978;23;20006;-53
2021/12/05 17:59:54;;;;;;;9.55;5.00;;;9.00;55.70;;;;;;6113466;23;20021;-54
2021/12/05 18:05:20;;;;;;;4.32;2.63;;;9.00;55.70;;;;;;6122905;23;20017;-51
2021/12/05 18:07:48;;;;;;;5.78;2.47;;;9.00;55.70;;;;;;6112795;23;20024;-55
2021/12/05 18:10:17;;;;;;;3.53;2.22;;;8.90;55.70;;;;;;6113074;23;20020;-53
2021/12/05 18:12:45;;;;;;;94.28;34.85;;;8.90;55.80;;;;;;6112787;23;20013;-56
2021/12/05 18:15:18;;;;;;;16.80;7.00;;;8.90;55.80;;;;;;6112025;23;19998;-55
2021/12/05 18:17:45;;;;;;;6.15;3.47;;;8.90;55.80;;;;;;6122621;23;20006;-55
2021/12/05 18:20:15;;;;;;;5.40;2.70;;;8.90;55.80;;;;;;6110918;23;19998;-55
2021/12/05 18:22:42;;;;;;;3.45;1.92;;;8.90;55.90;;;;;;6113514;23;20002;-55
2021/12/05 18:25:09;;;;;;;3.45;2.30;;;8.90;55.90;;;;;;6115786;23;20563;-55
2021/12/05 18:27:36;;;;;;;4.05;2.17;;;8.90;55.90;;;;;;6117249;23;20323;-54